Time,TemperatureF,DewpointF,PressureIn,WindDirection,WindDirectionDegrees,WindSpeedMPH,WindSpeedGustMPH,Humidity,HourlyPrecipIn,Conditions,Clouds,dailyrainin,SoftwareType,DateUTC
2013-01-12 00:03:00,52.0,-99.9,-100.00,South,187,8.0,10.0,-999,0.00,,,0.02,,2013-01-12 06:03:00,
2013-01-12 00:12:00,52.0,-99.9,-100.00,South,187,8.0,10.0,-999,0.00,,,0.02,,2013-01-12 06:12:00,
2013-01-12 00:23:00,52.0,-99.9,-100.00,South,187,8.0,10.0,-999,0.00,,,0.02,,2013-01-12 06:23:00,
2013-01-12 00:33:00,52.0,-99.9,-100.00,South,185,8.0,13.0,-999,0.00,,,0.02,,2013-01-12 06:33:00,
2013-01-12 00:43:00,52.0,-99.9,-100.00,South,185,8.0,13.0,-999,0.00,,,0.02,,2013-01-12 06:43:00,
2013-01-12 00:53:00,52.0,-99.9,-100.00,South,185,8.0,13.0,-999,0.00,,,0.02,,2013-01-12 06:53:00,
2013-01-12 01:02:00,52.0,-99.9,-100.00,SSW,192,7.0,13.0,-999,0.00,,,0.02,,2013-01-12 07:02:00,
2013-01-12 01:12:00,52.0,-99.9,-100.00,SSW,192,7.0,13.0,-999,0.00,,,0.02,,2013-01-12 07:12:00,
2013-01-12 01:22:00,52.0,-99.9,-100.00,SSW,192,7.0,13.0,-999,0.00,,,0.02,,2013-01-12 07:22:00,
2013-01-12 01:32:00,52.0,-99.9,-100.00,SSW,194,7.0,10.0,-999,0.00,,,0.02,,2013-01-12 07:32:00,
2013-01-12 01:42:00,52.0,-99.9,-100.00,SSW,194,7.0,10.0,-999,0.00,,,0.02,,2013-01-12 07:42:00,
2013-01-12 01:53:00,52.0,-99.9,-100.00,SSW,194,7.0,10.0,-999,0.00,,,0.02,,2013-01-12 07:53:00,
2013-01-12 02:02:00,52.0,-99.9,-100.00,South,187,8.0,11.0,-999,0.00,,,0.02,,2013-01-12 08:02:00,
2013-01-12 02:12:00,52.0,-99.9,-100.00,South,187,8.0,11.0,-999,0.00,,,0.02,,2013-01-12 08:12:00,
2013-01-12 02:22:00,52.0,-99.9,-100.00,South,187,8.0,11.0,-999,0.00,,,0.02,,2013-01-12 08:22:00,
2013-01-12 02:32:00,52.0,-99.9,-100.00,SSW,203,8.0,11.0,-999,0.00,,,0.02,,2013-01-12 08:32:00,
2013-01-12 02:42:00,52.0,-99.9,-100.00,SSW,203,8.0,11.0,-999,0.00,,,0.02,,2013-01-12 08:42:00,
2013-01-12 03:02:00,51.0,-99.9,-100.00,SSW,201,6.0,11.0,-999,0.00,,,0.02,,2013-01-12 09:02:00,
2013-01-12 03:12:00,51.0,-99.9,-100.00,SSW,201,6.0,11.0,-999,0.00,,,0.02,,2013-01-12 09:12:00,
2013-01-12 03:22:00,51.0,-99.9,-100.00,SSW,201,6.0,11.0,-999,0.00,,,0.02,,2013-01-12 09:22:00,
2013-01-12 03:33:00,52.0,-99.9,-100.00,SSW,192,8.0,14.0,-999,0.00,,,0.02,,2013-01-12 09:33:00,
2013-01-12 03:43:00,52.0,-99.9,-100.00,SSW,192,8.0,14.0,-999,0.00,,,0.02,,2013-01-12 09:43:00,
2013-01-12 03:53:00,52.0,-99.9,-100.00,SSW,192,8.0,14.0,-999,0.00,,,0.02,,2013-01-12 09:53:00,
2013-01-12 04:02:00,51.0,-99.9,-100.00,SSW,195,7.0,12.0,-999,0.00,,,0.02,,2013-01-12 10:02:00,
2013-01-12 04:12:00,51.0,-99.9,-100.00,SSW,195,7.0,12.0,-999,0.00,,,0.02,,2013-01-12 10:12:00,
2013-01-12 04:22:00,51.0,-99.9,-100.00,SSW,195,7.0,12.0,-999,0.00,,,0.02,,2013-01-12 10:22:00,
2013-01-12 04:33:00,51.0,-99.9,-100.00,SSW,199,9.0,14.0,-999,0.00,,,0.01,,2013-01-12 10:33:00,
2013-01-12 04:43:00,51.0,-99.9,-100.00,SSW,199,9.0,14.0,-999,0.00,,,0.01,,2013-01-12 10:43:00,
2013-01-12 04:52:00,51.0,-99.9,-100.00,SSW,199,9.0,14.0,-999,0.00,,,0.01,,2013-01-12 10:52:00,
2013-01-12 05:02:00,50.0,-99.9,-100.00,SW,218,8.0,12.0,-999,0.00,,,0.01,,2013-01-12 11:02:00,
2013-01-12 05:12:00,50.0,-99.9,-100.00,SW,218,8.0,12.0,-999,0.00,,,0.01,,2013-01-12 11:12:00,
2013-01-12 05:23:00,50.0,-99.9,-100.00,SW,218,8.0,12.0,-999,0.00,,,0.01,,2013-01-12 11:23:00,
2013-01-12 05:33:00,42.0,-99.9,-100.00,West,275,12.0,23.0,-999,0.00,,,0.01,,2013-01-12 11:33:00,
2013-01-12 05:43:00,42.0,-99.9,-100.00,West,275,12.0,23.0,-999,0.00,,,0.01,,2013-01-12 11:43:00,
2013-01-12 05:53:00,42.0,-99.9,-100.00,West,275,12.0,23.0,-999,0.00,,,0.01,,2013-01-12 11:53:00,
2013-01-12 06:03:00,40.0,-99.9,-100.00,WSW,249,10.0,21.0,-999,0.00,,,0.01,,2013-01-12 12:03:00,
2013-01-12 06:12:00,40.0,-99.9,-100.00,WSW,249,10.0,21.0,-999,0.00,,,0.01,,2013-01-12 12:12:00,
2013-01-12 06:22:00,40.0,-99.9,-100.00,WSW,249,10.0,21.0,-999,0.00,,,0.01,,2013-01-12 12:22:00,
2013-01-12 06:33:00,38.0,-99.9,-100.00,WSW,247,6.0,10.0,-999,0.00,,,0.01,,2013-01-12 12:33:00,
2013-01-12 06:43:00,38.0,-99.9,-100.00,WSW,247,6.0,10.0,-999,0.00,,,0.01,,2013-01-12 12:43:00,
2013-01-12 06:53:00,38.0,-99.9,-100.00,WSW,247,6.0,10.0,-999,0.00,,,0.01,,2013-01-12 12:53:00,
2013-01-12 07:03:00,37.0,-99.9,-100.00,WSW,245,9.0,14.0,-999,0.00,,,0.01,,2013-01-12 13:03:00,
2013-01-12 07:12:00,37.0,-99.9,-100.00,WSW,245,9.0,14.0,-999,0.00,,,0.01,,2013-01-12 13:12:00,
2013-01-12 07:23:00,37.0,-99.9,-100.00,WSW,245,9.0,14.0,-999,0.00,,,0.01,,2013-01-12 13:23:00,
2013-01-12 07:30:00,35.0,-99.9,-100.00,WSW,237,7.0,13.0,-999,0.00,,,0.01,,2013-01-12 13:30:00,
2013-01-12 07:33:00,36.0,-99.9,-100.00,West,269,7.0,13.0,-999,0.00,,,0.01,,2013-01-12 13:33:00,
2013-01-12 07:43:00,36.0,-99.9,-100.00,West,269,7.0,13.0,-999,0.00,,,0.01,,2013-01-12 13:43:00,
2013-01-12 07:53:00,36.0,-99.9,-100.00,West,269,7.0,13.0,-999,0.00,,,0.01,,2013-01-12 13:53:00,
2013-01-12 08:03:00,35.0,-99.9,-100.00,WSW,237,7.0,13.0,-999,0.00,,,0.01,,2013-01-12 14:03:00,
2013-01-12 08:13:00,35.0,-99.9,-100.00,WSW,237,7.0,13.0,-999,0.00,,,0.01,,2013-01-12 14:13:00,
2013-01-12 08:22:00,35.0,-99.9,-100.00,WSW,237,7.0,13.0,-999,0.00,,,0.01,,2013-01-12 14:22:00,
2013-01-12 09:04:00,33.0,-99.9,-100.00,WSW,254,7.0,14.0,-999,0.00,,,0.01,,2013-01-12 15:04:00,
2013-01-12 09:13:00,33.0,-99.9,-100.00,WSW,254,7.0,14.0,-999,0.00,,,0.01,,2013-01-12 15:13:00,
2013-01-12 09:23:00,33.0,-99.9,-100.00,WSW,254,7.0,14.0,-999,0.00,,,0.01,,2013-01-12 15:23:00,
2013-01-12 09:34:00,32.0,-99.9,-100.00,WSW,251,8.0,16.0,-999,0.00,,,0.01,,2013-01-12 15:34:00,
2013-01-12 09:43:00,32.0,-99.9,-100.00,WSW,251,8.0,16.0,-999,0.00,,,0.01,,2013-01-12 15:43:00,
2013-01-12 09:53:00,32.0,-99.9,-100.00,WSW,251,8.0,16.0,-999,0.00,,,0.01,,2013-01-12 15:53:00,
2013-01-12 10:03:00,31.0,-99.9,-100.00,West,267,5.0,8.0,-999,0.00,,,0.01,,2013-01-12 16:03:00,
2013-01-12 10:13:00,31.0,-99.9,-100.00,West,267,5.0,8.0,-999,0.00,,,0.01,,2013-01-12 16:13:00,
2013-01-12 10:23:00,31.0,-99.9,-100.00,West,267,5.0,8.0,-999,0.00,,,0.01,,2013-01-12 16:23:00,
2013-01-12 10:33:00,32.0,-99.9,-100.00,WSW,253,6.0,14.0,-999,0.00,,,0.01,,2013-01-12 16:33:00,
2013-01-12 10:43:00,32.0,-99.9,-100.00,WSW,253,6.0,14.0,-999,0.00,,,0.01,,2013-01-12 16:43:00,
2013-01-12 10:53:00,32.0,-99.9,-100.00,WSW,253,6.0,14.0,-999,0.00,,,0.01,,2013-01-12 16:53:00,
2013-01-12 11:03:00,31.0,-99.9,-100.00,West,265,5.0,10.0,-999,0.00,,,0.01,,2013-01-12 17:03:00,
2013-01-12 11:13:00,31.0,-99.9,-100.00,West,265,5.0,10.0,-999,0.00,,,0.01,,2013-01-12 17:13:00,
2013-01-12 11:23:00,31.0,-99.9,-100.00,West,265,5.0,10.0,-999,0.00,,,0.01,,2013-01-12 17:23:00,
2013-01-12 11:33:00,32.0,-99.9,-100.00,West,260,4.0,8.0,-999,0.00,,,0.01,,2013-01-12 17:33:00,
2013-01-12 11:43:00,32.0,-99.9,-100.00,West,260,4.0,8.0,-999,0.00,,,0.01,,2013-01-12 17:43:00,
2013-01-12 11:53:00,32.0,-99.9,-100.00,West,260,4.0,8.0,-999,0.00,,,0.01,,2013-01-12 17:53:00,
2013-01-12 12:03:00,31.0,-99.9,-100.00,West,269,7.0,12.0,-999,0.00,,,0.01,,2013-01-12 18:03:00,
2013-01-12 12:13:00,31.0,-99.9,-100.00,West,269,7.0,12.0,-999,0.00,,,0.01,,2013-01-12 18:13:00,
2013-01-12 12:23:00,31.0,-99.9,-100.00,West,269,7.0,12.0,-999,0.00,,,0.01,,2013-01-12 18:23:00,
2013-01-12 12:33:00,31.0,-99.9,-100.00,WSW,251,6.0,10.0,-999,0.00,,,0.01,,2013-01-12 18:33:00,
2013-01-12 12:43:00,31.0,-99.9,-100.00,WSW,251,6.0,10.0,-999,0.00,,,0.01,,2013-01-12 18:43:00,
2013-01-12 12:53:00,31.0,-99.9,-100.00,WSW,251,6.0,10.0,-999,0.00,,,0.01,,2013-01-12 18:53:00,
2013-01-12 13:03:00,31.0,-99.9,-100.00,SW,236,6.0,13.0,-999,0.00,,,0.01,,2013-01-12 19:03:00,
2013-01-12 13:13:00,31.0,-99.9,-100.00,SW,236,6.0,13.0,-999,0.00,,,0.01,,2013-01-12 19:13:00,
2013-01-12 13:23:00,31.0,-99.9,-100.00,SW,236,6.0,13.0,-999,0.00,,,0.01,,2013-01-12 19:23:00,
2013-01-12 13:33:00,30.0,-99.9,-100.00,SW,232,7.0,12.0,-999,0.00,,,0.01,,2013-01-12 19:33:00,
2013-01-12 13:43:00,30.0,-99.9,-100.00,SW,232,7.0,12.0,-999,0.00,,,0.01,,2013-01-12 19:43:00,
2013-01-12 13:53:00,30.0,-99.9,-100.00,SW,232,7.0,12.0,-999,0.00,,,0.01,,2013-01-12 19:53:00,
2013-01-12 14:03:00,30.0,-99.9,-100.00,WSW,254,5.0,8.0,-999,0.00,,,0.01,,2013-01-12 20:03:00,
2013-01-12 14:13:00,30.0,-99.9,-100.00,WSW,254,5.0,8.0,-999,0.00,,,0.01,,2013-01-12 20:13:00,
2013-01-12 14:23:00,30.0,-99.9,-100.00,WSW,254,5.0,8.0,-999,0.00,,,0.01,,2013-01-12 20:23:00,
2013-01-12 14:33:00,29.0,-99.9,-100.00,West,263,9.0,14.0,-999,0.00,,,0.01,,2013-01-12 20:33:00,
2013-01-12 14:43:00,29.0,-99.9,-100.00,West,263,9.0,14.0,-999,0.00,,,0.01,,2013-01-12 20:43:00,
2013-01-12 14:53:00,29.0,-99.9,-100.00,West,263,9.0,14.0,-999,0.00,,,0.01,,2013-01-12 20:53:00,
2013-01-12 15:03:00,29.0,-99.9,-100.00,West,268,7.0,10.0,-999,0.00,,,0.01,,2013-01-12 21:03:00,
2013-01-12 15:13:00,29.0,-99.9,-100.00,West,268,7.0,10.0,-999,0.00,,,0.01,,2013-01-12 21:13:00,
2013-01-12 15:22:00,29.0,-99.9,-100.00,West,268,7.0,10.0,-999,0.00,,,0.01,,2013-01-12 21:22:00,
2013-01-12 15:33:00,29.0,-99.9,-100.00,WNW,299,8.0,12.0,-999,0.00,,,0.01,,2013-01-12 21:33:00,
2013-01-12 15:43:00,29.0,-99.9,-100.00,WNW,299,8.0,12.0,-999,0.00,,,0.01,,2013-01-12 21:43:00,
2013-01-12 15:53:00,29.0,-99.9,-100.00,WNW,299,8.0,12.0,-999,0.00,,,0.01,,2013-01-12 21:53:00,
2013-01-12 16:03:00,29.0,-99.9,-100.00,WNW,296,7.0,13.0,-999,0.00,,,0.01,,2013-01-12 22:03:00,
2013-01-12 16:13:00,29.0,-99.9,-100.00,WNW,296,7.0,13.0,-999,0.00,,,0.01,,2013-01-12 22:13:00,
2013-01-12 16:23:00,29.0,-99.9,-100.00,WNW,296,7.0,13.0,-999,0.00,,,0.01,,2013-01-12 22:23:00,
2013-01-12 16:33:00,28.0,-99.9,-100.00,WNW,303,8.0,16.0,-999,0.00,,,0.01,,2013-01-12 22:33:00,
2013-01-12 16:44:00,28.0,-99.9,-100.00,WNW,303,8.0,16.0,-999,0.00,,,0.01,,2013-01-12 22:44:00,
2013-01-12 16:53:00,28.0,-99.9,-100.00,WNW,303,8.0,16.0,-999,0.00,,,0.01,,2013-01-12 22:53:00,
2013-01-12 17:03:00,28.0,-99.9,-100.00,WNW,299,8.0,13.0,-999,0.00,,,0.01,,2013-01-12 23:03:00,
2013-01-12 17:13:00,28.0,-99.9,-100.00,WNW,299,8.0,13.0,-999,0.00,,,0.01,,2013-01-12 23:13:00,
2013-01-12 17:23:00,28.0,-99.9,-100.00,WNW,299,8.0,13.0,-999,0.00,,,0.01,,2013-01-12 23:23:00,
2013-01-12 17:33:00,27.0,-99.9,-100.00,NW,325,9.0,13.0,-999,0.00,,,0.01,,2013-01-12 23:33:00,
2013-01-12 17:43:00,27.0,-99.9,-100.00,NW,325,9.0,13.0,-999,0.00,,,0.01,,2013-01-12 23:43:00,
2013-01-12 17:53:00,27.0,-99.9,-100.00,NW,325,9.0,13.0,-999,0.00,,,0.01,,2013-01-12 23:53:00,
2013-01-12 18:03:00,27.0,-99.9,-100.00,NW,313,8.0,15.0,-999,0.00,,,0.01,,2013-01-13 00:03:00,
2013-01-12 18:13:00,27.0,-99.9,-100.00,NW,313,8.0,15.0,-999,0.00,,,0.01,,2013-01-13 00:13:00,
2013-01-12 18:23:00,27.0,-99.9,-100.00,NW,313,8.0,15.0,-999,0.00,,,0.01,,2013-01-13 00:23:00,
2013-01-12 18:33:00,26.0,-99.9,-100.00,NW,309,8.0,14.0,-999,0.00,,,0.00,,2013-01-13 00:33:00,
2013-01-12 18:43:00,26.0,-99.9,-100.00,NW,309,8.0,14.0,-999,0.00,,,0.00,,2013-01-13 00:43:00,
2013-01-12 18:53:00,26.0,-99.9,-100.00,NW,309,8.0,14.0,-999,0.00,,,0.00,,2013-01-13 00:53:00,
2013-01-12 19:03:00,26.0,-99.9,-100.00,WNW,300,9.0,13.0,-999,0.00,,,0.00,,2013-01-13 01:03:00,
2013-01-12 19:12:00,26.0,-99.9,-100.00,WNW,300,9.0,13.0,-999,0.00,,,0.00,,2013-01-13 01:12:00,
2013-01-12 19:23:00,26.0,-99.9,-100.00,WNW,300,9.0,13.0,-999,0.00,,,0.00,,2013-01-13 01:23:00,
2013-01-12 19:30:00,25.0,-99.9,-100.00,WNW,286,6.0,12.0,-999,0.00,,,0.00,,2013-01-13 01:30:00,
2013-01-12 19:33:00,26.0,-99.9,-100.00,WNW,291,4.0,8.0,-999,0.00,,,0.00,,2013-01-13 01:33:00,
2013-01-12 19:43:00,26.0,-99.9,-100.00,WNW,291,4.0,8.0,-999,0.00,,,0.00,,2013-01-13 01:43:00,
2013-01-12 19:53:00,26.0,-99.9,-100.00,WNW,291,4.0,8.0,-999,0.00,,,0.00,,2013-01-13 01:53:00,
2013-01-12 20:03:00,25.0,-99.9,-100.00,WNW,286,6.0,12.0,-999,0.00,,,0.00,,2013-01-13 02:03:00,
2013-01-12 20:13:00,25.0,-99.9,-100.00,WNW,286,6.0,12.0,-999,0.00,,,0.00,,2013-01-13 02:13:00,
2013-01-12 20:23:00,25.0,-99.9,-100.00,WNW,286,6.0,12.0,-999,0.00,,,0.00,,2013-01-13 02:23:00,
2013-01-12 20:43:00,25.0,-99.9,-100.00,WNW,289,7.0,15.0,-999,0.00,,,0.00,,2013-01-13 02:43:00,
2013-01-12 20:53:00,25.0,-99.9,-100.00,WNW,289,7.0,15.0,-999,0.00,,,0.00,,2013-01-13 02:53:00,
2013-01-12 21:03:00,23.0,-99.9,-100.00,NW,311,7.0,14.0,-999,0.00,,,0.00,,2013-01-13 03:03:00,
2013-01-12 21:12:00,23.0,-99.9,-100.00,NW,311,7.0,14.0,-999,0.00,,,0.00,,2013-01-13 03:12:00,
2013-01-12 21:23:00,23.0,-99.9,-100.00,NW,311,7.0,14.0,-999,0.00,,,0.00,,2013-01-13 03:23:00,
2013-01-12 21:33:00,22.0,-99.9,-100.00,NW,323,8.0,13.0,-999,0.00,,,0.00,,2013-01-13 03:33:00,
2013-01-12 21:43:00,22.0,-99.9,-100.00,NW,323,8.0,13.0,-999,0.00,,,0.00,,2013-01-13 03:43:00,
2013-01-12 21:53:00,22.0,-99.9,-100.00,NW,323,8.0,13.0,-999,0.00,,,0.00,,2013-01-13 03:53:00,
2013-01-12 22:03:00,22.0,-99.9,-100.00,NNW,327,7.0,11.0,-999,0.00,,,0.00,,2013-01-13 04:03:00,
2013-01-12 22:12:00,22.0,-99.9,-100.00,NNW,327,7.0,11.0,-999,0.00,,,0.00,,2013-01-13 04:12:00,
2013-01-12 22:23:00,22.0,-99.9,-100.00,NNW,327,7.0,11.0,-999,0.00,,,0.00,,2013-01-13 04:23:00,
2013-01-12 22:33:00,22.0,-99.9,-100.00,NW,323,6.0,11.0,-999,0.00,,,0.00,,2013-01-13 04:33:00,
2013-01-12 22:43:00,22.0,-99.9,-100.00,NW,323,6.0,11.0,-999,0.00,,,0.00,,2013-01-13 04:43:00,
2013-01-12 22:53:00,22.0,-99.9,-100.00,NW,323,6.0,11.0,-999,0.00,,,0.00,,2013-01-13 04:53:00,
2013-01-12 23:03:00,21.0,-99.9,-100.00,WNW,293,3.0,6.0,-999,0.00,,,0.00,,2013-01-13 05:03:00,
2013-01-12 23:12:00,21.0,-99.9,-100.00,WNW,293,3.0,6.0,-999,0.00,,,0.00,,2013-01-13 05:12:00,
2013-01-12 23:23:00,21.0,-99.9,-100.00,WNW,293,3.0,6.0,-999,0.00,,,0.00,,2013-01-13 05:23:00,
2013-01-12 23:33:00,21.0,-99.9,-100.00,WNW,286,4.0,8.0,-999,0.00,,,0.00,,2013-01-13 05:33:00,
2013-01-12 23:42:00,21.0,-99.9,-100.00,WNW,286,4.0,8.0,-999,0.00,,,0.00,,2013-01-13 05:42:00,
2013-01-12 23:53:00,21.0,-99.9,-100.00,WNW,286,4.0,8.0,-999,0.00,,,0.00,,2013-01-13 05:53:00,